Time;durP1;ratioP1;P1;durP2;ratioP2;P2;SDS_P1;SDS_P2;PMS_P1;PMS_P2;Temp;Humidity;BMP_temperature;BMP_pressure;BME280_temperature;BME280_humidity;BME280_pressure;Samples;Min_cycle;Max_cycle;Signal;HPM_P1;HPM_P2
2023/09/13 00:01:42;;;;;;;2.08;1.70;;;;;;;;;;5068649;28;41552;-71
2023/09/13 00:04:11;;;;;;;3.08;1.73;;;;;;;;;;5069671;28;43090;-73
2023/09/13 00:06:41;;;;;;;2.00;1.80;;;;;;;;;;5068327;28;42688;-72
2023/09/13 00:09:09;;;;;;;2.92;2.00;;;;;;;;;;5065408;28;42130;-72
2023/09/13 00:11:37;;;;;;;2.22;1.92;;;;;;;;;;5068995;28;40764;-72
2023/09/13 00:14:06;;;;;;;2.03;1.60;;;;;;;;;;5068697;28;41469;-72
2023/09/13 00:16:33;;;;;;;2.88;1.80;;;;;;;;;;5068714;28;43100;-71
2023/09/13 00:19:04;;;;;;;3.40;1.65;;;;;;;;;;5068492;28;38752;-71
2023/09/13 00:21:32;;;;;;;1.90;1.50;;;;;;;;;;5068576;28;41179;-71
2023/09/13 00:24:01;;;;;;;1.88;1.60;;;;;;;;;;5068573;28;41576;-72
2023/09/13 00:26:29;;;;;;;2.60;1.88;;;;;;;;;;5069465;28;40399;-71
2023/09/13 00:28:58;;;;;;;1.88;1.52;;;;;;;;;;5069231;28;42813;-72
2023/09/13 00:31:26;;;;;;;3.28;2.22;;;;;;;;;;5066721;28;39034;-72
2023/09/13 00:33:54;;;;;;;1.65;1.45;;;;;;;;;;5067821;28;40494;-71
2023/09/13 00:36:22;;;;;;;2.05;1.80;;;;;;;;;;5068313;28;41394;-72
2023/09/13 00:38:52;;;;;;;1.60;1.42;;;;;;;;;;5068971;28;41612;-72
2023/09/13 00:41:21;;;;;;;2.70;1.65;;;;;;;;;;5069058;28;41566;-72
2023/09/13 00:43:49;;;;;;;2.45;1.50;;;;;;;;;;5069469;28;41862;-71
2023/09/13 00:46:17;;;;;;;1.70;1.30;;;;;;;;;;5069136;28;41195;-71
2023/09/13 00:48:46;;;;;;;2.47;1.65;;;;;;;;;;5070503;28;42529;-72
2023/09/13 00:51:14;;;;;;;1.40;1.30;;;;;;;;;;5067610;28;41647;-72
2023/09/13 00:53:42;;;;;;;1.73;1.60;;;;;;;;;;5068812;28;41436;-72
2023/09/13 00:56:11;;;;;;;2.42;1.48;;;;;;;;;;5069419;28;42075;-72
2023/09/13 00:58:42;;;;;;;2.97;1.77;;;;;;;;;;5067747;28;40922;-72
2023/09/13 01:01:12;;;;;;;1.98;1.20;;;;;;;;;;5068731;28;41778;-71
2023/09/13 01:03:41;;;;;;;1.67;1.33;;;;;;;;;;5062022;28;42050;-71
2023/09/13 01:06:10;;;;;;;1.52;1.38;;;;;;;;;;5064693;28;41069;-72
2023/09/13 01:08:39;;;;;;;1.67;1.38;;;;;;;;;;5065811;28;41348;-72
2023/09/13 01:11:08;;;;;;;3.00;1.63;;;;;;;;;;5062442;28;43135;-72
2023/09/13 01:13:36;;;;;;;2.75;1.40;;;;;;;;;;5067796;28;42270;-72
2023/09/13 01:16:09;;;;;;;1.40;1.30;;;;;;;;;;5069194;28;41689;-71
2023/09/13 01:18:39;;;;;;;1.73;1.45;;;;;;;;;;5065455;28;40286;-72
2023/09/13 01:21:14;;;;;;;2.42;1.42;;;;;;;;;;5061508;28;40000;-72
2023/09/13 01:23:47;;;;;;;1.42;1.33;;;;;;;;;;5065073;28;42338;-72
2023/09/13 01:26:20;;;;;;;3.30;1.60;;;;;;;;;;5067671;28;39893;-72
2023/09/13 01:28:50;;;;;;;1.52;1.35;;;;;;;;;;5066028;28;41259;-71
2023/09/13 01:31:20;;;;;;;1.30;1.20;;;;;;;;;;5069033;28;42250;-71
2023/09/13 01:33:49;;;;;;;1.85;1.30;;;;;;;;;;5064874;28;41813;-72
2023/09/13 01:36:17;;;;;;;1.63;1.50;;;;;;;;;;5068494;28;43057;-71
2023/09/13 01:38:45;;;;;;;1.55;1.40;;;;;;;;;;5068488;28;42065;-71
2023/09/13 01:41:14;;;;;;;1.40;1.27;;;;;;;;;;5068096;28;42539;-71
2023/09/13 01:43:42;;;;;;;2.35;1.27;;;;;;;;;;5067245;28;40258;-71
2023/09/13 01:46:12;;;;;;;2.95;1.40;;;;;;;;;;5068698;28;40995;-71
2023/09/13 01:48:40;;;;;;;2.20;1.30;;;;;;;;;;5067800;28;42569;-71
2023/09/13 01:51:09;;;;;;;1.50;1.40;;;;;;;;;;5067239;28;43094;-71
2023/09/13 01:53:43;;;;;;;1.10;1.00;;;;;;;;;;5068221;28;40163;-71
2023/09/13 01:56:12;;;;;;;1.30;1.20;;;;;;;;;;5064965;28;43087;-71
2023/09/13 01:58:40;;;;;;;1.75;1.35;;;;;;;;;;5064451;28;40258;-71
2023/09/13 02:01:08;;;;;;;1.88;1.50;;;;;;;;;;5066957;28;39806;-71
2023/09/13 02:03:38;;;;;;;1.48;1.20;;;;;;;;;;5065307;28;42870;-71
2023/09/13 02:06:06;;;;;;;1.20;1.10;;;;;;;;;;5066801;28;39274;-71
2023/09/13 02:08:34;;;;;;;1.45;1.35;;;;;;;;;;5065949;28;40924;-71
2023/09/13 02:11:02;;;;;;;3.55;1.13;;;;;;;;;;5063431;28;42040;-71
2023/09/13 02:13:30;;;;;;;1.70;1.20;;;;;;;;;;5067508;28;40381;-71
2023/09/13 02:15:58;;;;;;;1.45;1.25;;;;;;;;;;5068409;28;42370;-71
2023/09/13 02:18:26;;;;;;;1.40;1.30;;;;;;;;;;5067467;28;40103;-71
2023/09/13 02:20:55;;;;;;;1.50;1.08;;;;;;;;;;5067580;28;42689;-71
2023/09/13 02:23:23;;;;;;;1.20;1.10;;;;;;;;;;5066013;28;41757;-71
2023/09/13 02:25:51;;;;;;;1.40;1.30;;;;;;;;;;5068104;28;40038;-71
2023/09/13 02:28:19;;;;;;;1.50;1.40;;;;;;;;;;5067432;28;41540;-71
2023/09/13 02:30:47;;;;;;;1.70;1.60;;;;;;;;;;5062178;28;42923;-71
2023/09/13 02:33:15;;;;;;;1.65;1.35;;;;;;;;;;5066924;28;39616;-71
2023/09/13 02:35:43;;;;;;;2.70;1.58;;;;;;;;;;5067731;28;41304;-71
2023/09/13 02:38:13;;;;;;;1.60;1.50;;;;;;;;;;5066103;28;40875;-71
2023/09/13 02:40:41;;;;;;;1.48;1.30;;;;;;;;;;5067529;28;42314;-71
2023/09/13 02:43:09;;;;;;;1.50;1.40;;;;;;;;;;5066016;28;40588;-71
2023/09/13 02:45:37;;;;;;;2.67;1.15;;;;;;;;;;5066615;28;40283;-71
2023/09/13 02:48:06;;;;;;;1.25;1.15;;;;;;;;;;5067926;28;41594;-71
2023/09/13 02:50:34;;;;;;;1.45;1.20;;;;;;;;;;5065852;28;42071;-71
2023/09/13 02:53:03;;;;;;;1.45;1.35;;;;;;;;;;5067130;28;41305;-71
2023/09/13 02:55:32;;;;;;;1.30;1.20;;;;;;;;;;5067133;28;42204;-71
2023/09/13 02:58:00;;;;;;;1.52;1.40;;;;;;;;;;5066091;28;42261;-71
2023/09/13 03:00:29;;;;;;;1.50;1.40;;;;;;;;;;5067376;28;40484;-71
2023/09/13 03:02:57;;;;;;;1.50;1.40;;;;;;;;;;5065072;28;43452;-71
2023/09/13 03:05:26;;;;;;;1.20;1.10;;;;;;;;;;5065732;28;40144;-71
2023/09/13 03:07:56;;;;;;;1.23;1.13;;;;;;;;;;5066199;28;41596;-71
2023/09/13 03:10:26;;;;;;;1.00;0.95;;;;;;;;;;5066224;28;41858;-71
2023/09/13 03:12:55;;;;;;;1.45;1.35;;;;;;;;;;5065352;28;40143;-71
2023/09/13 03:15:24;;;;;;;1.90;1.38;;;;;;;;;;5050810;28;39694;-71
2023/09/13 03:17:52;;;;;;;1.30;1.20;;;;;;;;;;5065522;28;40601;-71
2023/09/13 03:20:20;;;;;;;1.42;1.10;;;;;;;;;;5066349;28;41061;-71
2023/09/13 03:22:48;;;;;;;1.00;0.90;;;;;;;;;;5069802;28;41831;-71
2023/09/13 03:25:17;;;;;;;1.38;1.15;;;;;;;;;;5068639;28;38746;-71
2023/09/13 03:27:45;;;;;;;1.40;1.30;;;;;;;;;;5068836;28;41640;-71
2023/09/13 03:30:15;;;;;;;1.20;1.10;;;;;;;;;;5069164;28;41626;-71
2023/09/13 03:32:43;;;;;;;1.20;1.10;;;;;;;;;;5068666;28;39258;-71
2023/09/13 03:35:11;;;;;;;1.30;1.20;;;;;;;;;;5069712;28;40701;-71
2023/09/13 03:37:39;;;;;;;1.25;1.10;;;;;;;;;;5069376;28;40307;-71
2023/09/13 03:40:08;;;;;;;1.67;1.23;;;;;;;;;;5068867;28;38743;-71
2023/09/13 03:42:36;;;;;;;1.30;1.13;;;;;;;;;;5068958;28;40253;-71
2023/09/13 03:45:04;;;;;;;1.33;1.13;;;;;;;;;;5069402;28;39226;-71
2023/09/13 03:47:34;;;;;;;1.48;1.27;;;;;;;;;;5068096;28;41221;-71
2023/09/13 03:50:02;;;;;;;2.55;1.00;;;;;;;;;;5069083;28;40816;-71
2023/09/13 03:52:30;;;;;;;1.27;1.17;;;;;;;;;;5068948;28;38978;-71
2023/09/13 03:54:58;;;;;;;1.48;1.38;;;;;;;;;;5069816;28;41371;-71
2023/09/13 03:57:27;;;;;;;2.35;1.33;;;;;;;;;;5068022;28;43579;-71
2023/09/13 03:59:55;;;;;;;1.08;0.98;;;;;;;;;;5063513;28;41480;-71
2023/09/13 04:02:23;;;;;;;1.13;1.02;;;;;;;;;;5069194;28;41607;-71
2023/09/13 04:04:54;;;;;;;1.20;1.10;;;;;;;;;;5068098;28;40414;-71
2023/09/13 04:07:23;;;;;;;1.45;1.20;;;;;;;;;;5070392;28;41045;-71
2023/09/13 04:09:51;;;;;;;1.23;1.10;;;;;;;;;;5069042;28;42135;-71
2023/09/13 04:12:19;;;;;;;1.45;1.13;;;;;;;;;;5066331;28;40245;-71
2023/09/13 04:14:46;;;;;;;1.00;0.90;;;;;;;;;;5068865;28;41814;-71
2023/09/13 04:17:14;;;;;;;1.13;0.90;;;;;;;;;;5068177;28;41089;-71
2023/09/13 04:19:43;;;;;;;7.90;1.10;;;;;;;;;;5068868;28;40070;-71
2023/09/13 04:22:16;;;;;;;2.85;1.45;;;;;;;;;;5067763;28;40535;-71
2023/09/13 04:24:45;;;;;;;2.20;1.20;;;;;;;;;;5067785;28;41613;-71
2023/09/13 04:27:16;;;;;;;1.20;1.10;;;;;;;;;;5069045;28;40018;-71
2023/09/13 04:29:44;;;;;;;1.30;1.20;;;;;;;;;;5069067;28;41762;-71
2023/09/13 04:32:12;;;;;;;1.30;1.20;;;;;;;;;;5069574;28;41310;-72
2023/09/13 04:34:40;;;;;;;1.45;1.20;;;;;;;;;;5067181;28;40049;-71
2023/09/13 04:37:08;;;;;;;1.40;1.30;;;;;;;;;;5067779;28;41428;-71
2023/09/13 04:39:37;;;;;;;1.05;0.95;;;;;;;;;;5068212;28;40223;-71
2023/09/13 04:42:06;;;;;;;1.35;1.10;;;;;;;;;;5069590;28;41743;-71
2023/09/13 04:44:34;;;;;;;1.50;1.08;;;;;;;;;;5066936;28;40106;-71
2023/09/13 04:47:02;;;;;;;1.10;1.00;;;;;;;;;;5068160;28;39221;-71
2023/09/13 04:49:31;;;;;;;1.20;1.10;;;;;;;;;;5054536;28;40312;-71
2023/09/13 04:51:59;;;;;;;0.90;0.90;;;;;;;;;;5067162;28;38900;-72
2023/09/13 04:54:28;;;;;;;1.20;1.10;;;;;;;;;;5067114;28;41913;-71
2023/09/13 04:56:57;;;;;;;1.40;1.17;;;;;;;;;;5068218;28;41303;-71
2023/09/13 04:59:25;;;;;;;1.30;1.10;;;;;;;;;;5066588;28;38792;-71
2023/09/13 05:01:53;;;;;;;1.20;1.10;;;;;;;;;;5068606;28;40201;-71
2023/09/13 05:04:22;;;;;;;1.38;1.25;;;;;;;;;;5068108;28;40706;-71
2023/09/13 05:06:51;;;;;;;1.13;1.02;;;;;;;;;;5069085;28;40148;-71
2023/09/13 05:09:19;;;;;;;1.08;0.80;;;;;;;;;;5067645;28;41173;-71
2023/09/13 05:11:47;;;;;;;1.02;0.90;;;;;;;;;;5068855;28;42123;-71
2023/09/13 05:14:16;;;;;;;1.23;1.08;;;;;;;;;;5068869;28;41331;-71
2023/09/13 05:16:44;;;;;;;1.00;0.90;;;;;;;;;;5068679;28;42696;-71
2023/09/13 05:19:12;;;;;;;0.80;0.80;;;;;;;;;;5068316;28;41386;-71
2023/09/13 05:21:41;;;;;;;1.27;0.98;;;;;;;;;;5067544;28;41475;-71
2023/09/13 05:24:09;;;;;;;1.10;1.00;;;;;;;;;;5059202;28;42752;-71
2023/09/13 05:26:37;;;;;;;1.25;1.00;;;;;;;;;;5067269;28;40083;-72
2023/09/13 05:29:05;;;;;;;1.15;1.00;;;;;;;;;;5068260;28;41123;-72
2023/09/13 05:31:35;;;;;;;1.85;1.67;;;;;;;;;;5062736;28;41769;-72
2023/09/13 05:34:03;;;;;;;1.75;1.20;;;;;;;;;;5057106;28;41863;-72
2023/09/13 05:36:31;;;;;;;1.55;1.00;;;;;;;;;;5054425;28;42128;-72
2023/09/13 05:38:59;;;;;;;1.85;1.30;;;;;;;;;;5064936;28;41148;-72
2023/09/13 05:41:27;;;;;;;1.08;0.98;;;;;;;;;;5057247;28;41815;-71
2023/09/13 05:43:55;;;;;;;1.23;1.13;;;;;;;;;;5056765;28;41923;-72
2023/09/13 05:46:23;;;;;;;1.17;1.08;;;;;;;;;;5063158;28;41289;-71
2023/09/13 05:48:52;;;;;;;1.30;1.20;;;;;;;;;;5061156;28;41653;-71
2023/09/13 05:51:20;;;;;;;1.85;1.73;;;;;;;;;;5065436;28;43099;-71
2023/09/13 05:53:48;;;;;;;13.68;11.50;;;;;;;;;;5055262;28;40026;-71
2023/09/13 05:56:16;;;;;;;20.63;15.93;;;;;;;;;;5062554;28;42140;-71
2023/09/13 05:58:44;;;;;;;27.17;19.90;;;;;;;;;;5068406;28;40263;-72
2023/09/13 06:01:12;;;;;;;27.95;21.65;;;;;;;;;;5066723;28;42057;-72
2023/09/13 06:03:40;;;;;;;29.33;22.17;;;;;;;;;;5067524;28;41383;-71
2023/09/13 06:06:09;;;;;;;30.30;23.48;;;;;;;;;;5082651;28;39630;-70
2023/09/13 06:08:37;;;;;;;31.65;23.10;;;;;;;;;;5066591;28;41267;-70
2023/09/13 06:11:05;;;;;;;28.80;23.17;;;;;;;;;;5067998;28;41964;-70
2023/09/13 06:13:33;;;;;;;30.20;23.80;;;;;;;;;;5067385;28;40709;-70
2023/09/13 06:16:01;;;;;;;36.08;25.52;;;;;;;;;;5067381;28;41656;-70
2023/09/13 06:18:29;;;;;;;39.80;27.05;;;;;;;;;;5066941;28;40603;-70
2023/09/13 06:20:59;;;;;;;36.03;25.27;;;;;;;;;;5067584;28;41656;-70
2023/09/13 06:23:35;;;;;;;36.50;27.30;;;;;;;;;;5066534;28;41957;-70
2023/09/13 06:26:03;;;;;;;36.63;27.63;;;;;;;;;;5064936;28;41637;-70
2023/09/13 06:28:31;;;;;;;37.55;28.33;;;;;;;;;;5066711;28;41660;-71
2023/09/13 06:31:00;;;;;;;40.45;31.35;;;;;;;;;;5067962;28;43146;-70
2023/09/13 06:33:31;;;;;;;40.72;30.52;;;;;;;;;;5060446;28;40126;-70
2023/09/13 06:36:09;;;;;;;38.03;29.88;;;;;;;;;;5063839;28;42258;-70
2023/09/13 06:38:41;;;;;;;46.90;30.05;;;;;;;;;;5067404;28;42356;-70
2023/09/13 06:41:10;;;;;;;40.38;30.48;;;;;;;;;;5065029;28;41647;-70
2023/09/13 06:43:40;;;;;;;53.22;31.58;;;;;;;;;;5066300;28;42420;-70
2023/09/13 06:46:28;;;;;;;39.22;29.63;;;;;;;;;;5062892;28;40334;-70
2023/09/13 06:48:57;;;;;;;40.42;30.73;;;;;;;;;;5067478;28;41301;-70
2023/09/13 06:51:26;;;;;;;40.78;31.65;;;;;;;;;;5066420;28;43309;-70
2023/09/13 06:53:58;;;;;;;41.80;31.55;;;;;;;;;;5067165;28;39631;-71
2023/09/13 06:56:29;;;;;;;40.33;29.58;;;;;;;;;;5063215;28;42518;-71
2023/09/13 06:59:00;;;;;;;39.33;30.40;;;;;;;;;;5063286;28;41735;-71
2023/09/13 07:01:30;;;;;;;43.53;31.20;;;;;;;;;;5067689;28;41613;-70
2023/09/13 07:04:19;;;;;;;28.85;21.00;;;;;;;;;;5060056;28;41627;-70
2023/09/13 07:06:59;;;;;;;12.63;8.18;;;;;;;;;;5057398;28;41014;-71
2023/09/13 07:09:28;;;;;;;10.63;5.68;;;;;;;;;;5063884;28;41770;-73
2023/09/13 07:11:56;;;;;;;7.30;5.43;;;;;;;;;;5064666;28;42418;-72
2023/09/13 07:14:24;;;;;;;6.75;4.05;;;;;;;;;;5067987;28;40421;-72
2023/09/13 07:16:52;;;;;;;5.03;3.72;;;;;;;;;;5069766;28;41384;-72
2023/09/13 07:19:20;;;;;;;6.90;3.42;;;;;;;;;;5067235;28;41618;-72
2023/09/13 07:21:49;;;;;;;5.78;3.28;;;;;;;;;;5067999;28;40794;-72
2023/09/13 07:24:17;;;;;;;4.32;2.60;;;;;;;;;;5066923;28;42701;-72
2023/09/13 07:26:46;;;;;;;4.10;2.10;;;;;;;;;;5066851;28;42341;-72
2023/09/13 07:29:14;;;;;;;3.90;1.95;;;;;;;;;;5067977;28;42571;-72
2023/09/13 07:31:42;;;;;;;3.38;1.55;;;;;;;;;;5066737;28;41896;-72
2023/09/13 07:34:10;;;;;;;5.63;1.73;;;;;;;;;;5067244;28;40166;-72
2023/09/13 07:36:41;;;;;;;7.40;1.42;;;;;;;;;;5066517;28;42312;-72
2023/09/13 07:39:09;;;;;;;3.63;1.42;;;;;;;;;;5067427;28;42109;-72
2023/09/13 07:41:37;;;;;;;2.45;1.33;;;;;;;;;;5067053;28;41105;-72
2023/09/13 07:44:06;;;;;;;4.25;1.35;;;;;;;;;;5067516;28;41231;-73
2023/09/13 07:46:34;;;;;;;2.58;1.15;;;;;;;;;;5056906;28;33440;-73
2023/09/13 07:49:04;;;;;;;2.53;1.20;;;;;;;;;;5062791;28;41784;-72
2023/09/13 07:51:33;;;;;;;9.73;1.15;;;;;;;;;;5066959;28;42145;-72
2023/09/13 07:54:04;;;;;;;6.32;0.95;;;;;;;;;;5067035;28;40342;-72
2023/09/13 07:56:33;;;;;;;5.97;1.05;;;;;;;;;;5064190;28;41964;-74
2023/09/13 07:59:01;;;;;;;3.08;0.98;;;;;;;;;;5067847;28;42135;-74
2023/09/13 08:01:31;;;;;;;2.53;0.80;;;;;;;;;;5066215;28;39968;-72
2023/09/13 08:04:00;;;;;;;4.13;0.70;;;;;;;;;;5067996;28;42662;-72
2023/09/13 08:06:30;;;;;;;4.95;0.95;;;;;;;;;;5066463;28;41917;-72
2023/09/13 08:08:59;;;;;;;2.15;0.80;;;;;;;;;;5069689;28;41409;-72
2023/09/13 08:11:31;;;;;;;2.17;0.95;;;;;;;;;;5069804;28;41276;-73
2023/09/13 08:13:59;;;;;;;1.38;0.60;;;;;;;;;;5061862;28;41457;-72
2023/09/13 08:16:27;;;;;;;6.65;1.02;;;;;;;;;;5070603;28;41208;-72
2023/09/13 08:18:56;;;;;;;4.43;1.05;;;;;;;;;;5070650;28;42177;-73
2023/09/13 08:21:24;;;;;;;5.70;0.80;;;;;;;;;;5069632;28;41307;-71
2023/09/13 08:23:52;;;;;;;3.63;0.70;;;;;;;;;;5069768;28;41383;-71
2023/09/13 08:26:20;;;;;;;3.63;0.80;;;;;;;;;;5058460;28;41792;-72
2023/09/13 08:28:55;;;;;;;2.33;0.75;;;;;;;;;;5069281;28;41412;-72
2023/09/13 08:31:24;;;;;;;5.60;0.70;;;;;;;;;;5059126;28;42837;-72
2023/09/13 08:33:53;;;;;;;4.78;1.02;;;;;;;;;;5068624;28;39948;-71
2023/09/13 08:36:22;;;;;;;3.13;0.77;;;;;;;;;;5068180;28;41156;-73
2023/09/13 08:38:50;;;;;;;5.18;0.82;;;;;;;;;;5068629;28;42485;-73
2023/09/13 08:41:18;;;;;;;6.22;0.90;;;;;;;;;;5061203;28;40931;-74
2023/09/13 08:43:46;;;;;;;3.63;0.77;;;;;;;;;;5069447;28;41696;-72
2023/09/13 08:46:14;;;;;;;3.97;1.02;;;;;;;;;;5070514;28;43170;-73
2023/09/13 08:48:42;;;;;;;4.68;0.90;;;;;;;;;;5069467;28;41449;-73
2023/09/13 08:51:11;;;;;;;3.67;0.90;;;;;;;;;;5066167;28;43030;-73
2023/09/13 08:53:40;;;;;;;4.70;0.88;;;;;;;;;;5068380;28;38799;-72
2023/09/13 08:56:08;;;;;;;5.35;1.15;;;;;;;;;;5070328;28;41609;-72
2023/09/13 08:58:37;;;;;;;8.75;1.05;;;;;;;;;;5069218;28;41798;-72
2023/09/13 09:01:05;;;;;;;4.38;1.02;;;;;;;;;;5069902;28;40196;-72
2023/09/13 09:03:34;;;;;;;2.08;0.90;;;;;;;;;;5059032;28;41704;-72
2023/09/13 09:06:03;;;;;;;3.00;1.25;;;;;;;;;;5069938;28;43048;-72
2023/09/13 09:08:31;;;;;;;3.63;1.02;;;;;;;;;;5070326;28;40369;-71
2023/09/13 09:11:00;;;;;;;3.65;1.35;;;;;;;;;;5069569;28;41491;-72
2023/09/13 09:13:28;;;;;;;3.80;1.10;;;;;;;;;;5069657;28;41854;-72
2023/09/13 09:15:56;;;;;;;7.15;1.63;;;;;;;;;;5070171;28;41574;-71
2023/09/13 09:18:24;;;;;;;2.50;1.00;;;;;;;;;;5069303;28;42006;-71
2023/09/13 09:20:52;;;;;;;4.30;1.00;;;;;;;;;;5066604;28;40084;-73
2023/09/13 09:23:23;;;;;;;2.33;1.23;;;;;;;;;;5063624;28;41742;-72
2023/09/13 09:25:51;;;;;;;5.47;1.10;;;;;;;;;;5069210;28;43160;-72
2023/09/13 09:28:21;;;;;;;3.00;1.27;;;;;;;;;;5069245;28;40390;-72
2023/09/13 09:30:49;;;;;;;4.70;1.25;;;;;;;;;;5056241;28;41566;-72
2023/09/13 09:33:18;;;;;;;3.00;1.20;;;;;;;;;;5069092;28;43025;-72
2023/09/13 09:35:53;;;;;;;3.05;1.08;;;;;;;;;;5070735;28;41121;-72
2023/09/13 09:38:22;;;;;;;3.15;1.00;;;;;;;;;;5070922;28;20230;-73
2023/09/13 09:40:50;;;;;;;1.77;1.00;;;;;;;;;;5066261;28;41509;-72
2023/09/13 09:43:18;;;;;;;2.42;1.02;;;;;;;;;;5063011;28;41855;-71
2023/09/13 09:45:48;;;;;;;5.72;1.30;;;;;;;;;;5061574;28;41557;-72
2023/09/13 09:48:16;;;;;;;2.50;1.10;;;;;;;;;;5069113;28;40246;-71
2023/09/13 09:50:45;;;;;;;2.00;0.88;;;;;;;;;;5067978;28;41243;-71
2023/09/13 09:53:14;;;;;;;3.60;1.35;;;;;;;;;;5067873;28;43243;-72
2023/09/13 09:55:42;;;;;;;2.80;1.25;;;;;;;;;;5069446;28;41693;-71
2023/09/13 09:58:10;;;;;;;2.50;1.20;;;;;;;;;;5068901;28;42162;-72
2023/09/13 10:00:49;;;;;;;4.18;1.40;;;;;;;;;;5068166;28;40421;-72
2023/09/13 10:03:20;;;;;;;4.85;1.25;;;;;;;;;;5066037;28;41247;-71
2023/09/13 10:05:51;;;;;;;4.50;1.52;;;;;;;;;;5055354;28;41712;-72
2023/09/13 10:08:19;;;;;;;2.30;1.00;;;;;;;;;;5068045;28;40331;-73
2023/09/13 10:10:47;;;;;;;3.67;1.10;;;;;;;;;;5068785;28;42559;-71
2023/09/13 10:13:15;;;;;;;5.60;1.48;;;;;;;;;;5068573;28;43099;-70
2023/09/13 10:15:43;;;;;;;7.13;1.75;;;;;;;;;;5067606;28;40609;-72
2023/09/13 10:18:13;;;;;;;6.57;1.20;;;;;;;;;;5068372;28;41289;-71
2023/09/13 10:20:41;;;;;;;6.85;1.40;;;;;;;;;;5067635;28;42823;-72
2023/09/13 10:23:09;;;;;;;4.95;1.55;;;;;;;;;;5056411;28;41275;-72
2023/09/13 10:25:37;;;;;;;8.77;1.77;;;;;;;;;;5064175;28;42176;-70
2023/09/13 10:28:05;;;;;;;10.60;1.73;;;;;;;;;;5066513;28;40297;-70
2023/09/13 10:30:35;;;;;;;4.10;1.20;;;;;;;;;;5063891;28;41547;-70
2023/09/13 10:33:04;;;;;;;5.78;1.48;;;;;;;;;;5066621;28;41519;-70
2023/09/13 10:35:33;;;;;;;3.63;1.45;;;;;;;;;;5065388;28;41106;-71
2023/09/13 10:38:03;;;;;;;2.83;1.20;;;;;;;;;;5066171;28;42635;-71
2023/09/13 10:40:34;;;;;;;10.57;1.70;;;;;;;;;;5063982;28;42500;-70
2023/09/13 10:43:02;;;;;;;6.18;1.27;;;;;;;;;;5063503;28;41735;-71
2023/09/13 10:45:30;;;;;;;2.72;1.23;;;;;;;;;;5064655;28;41897;-71
2023/09/13 10:47:58;;;;;;;5.00;1.60;;;;;;;;;;5062040;28;41314;-70
2023/09/13 10:50:27;;;;;;;3.25;1.63;;;;;;;;;;5065326;28;42324;-70
2023/09/13 10:52:56;;;;;;;5.70;1.60;;;;;;;;;;5065311;28;42091;-70
2023/09/13 10:55:24;;;;;;;7.03;1.52;;;;;;;;;;5061292;28;39448;-70
2023/09/13 10:57:52;;;;;;;7.43;1.73;;;;;;;;;;5064739;28;41322;-70
2023/09/13 11:00:21;;;;;;;7.60;2.05;;;;;;;;;;5065690;28;42693;-70
2023/09/13 11:02:49;;;;;;;5.20;1.60;;;;;;;;;;5064370;28;41389;-70
2023/09/13 11:05:19;;;;;;;4.40;1.70;;;;;;;;;;5065649;28;41675;-70
2023/09/13 11:07:48;;;;;;;4.35;1.40;;;;;;;;;;5064890;28;40170;-72
2023/09/13 11:10:18;;;;;;;7.13;1.90;;;;;;;;;;5066583;28;42649;-71
2023/09/13 11:12:50;;;;;;;5.90;1.95;;;;;;;;;;5063091;28;41861;-71
2023/09/13 11:15:21;;;;;;;9.75;1.75;;;;;;;;;;5066976;28;41275;-71
2023/09/13 11:17:50;;;;;;;5.70;2.00;;;;;;;;;;5063834;28;42612;-71
2023/09/13 11:20:22;;;;;;;4.53;2.00;;;;;;;;;;5067628;28;41763;-71
2023/09/13 11:23:09;;;;;;;9.00;2.47;;;;;;;;;;5063445;28;41306;-71
2023/09/13 11:25:43;;;;;;;8.68;2.40;;;;;;;;;;5061547;28;41716;-70
2023/09/13 11:28:28;;;;;;;7.63;2.47;;;;;;;;;;5066824;28;40325;-71
2023/09/13 11:30:57;;;;;;;7.47;1.90;;;;;;;;;;5066215;28;41812;-73
2023/09/13 11:33:26;;;;;;;6.15;1.90;;;;;;;;;;5065774;28;42294;-70
2023/09/13 11:35:54;;;;;;;17.77;2.25;;;;;;;;;;5065553;28;40925;-71
2023/09/13 11:38:22;;;;;;;9.50;2.17;;;;;;;;;;5061555;28;41288;-71
2023/09/13 11:40:51;;;;;;;10.23;2.65;;;;;;;;;;5060642;28;42061;-70
2023/09/13 11:43:22;;;;;;;6.47;2.33;;;;;;;;;;5056649;28;40445;-70
2023/09/13 11:46:01;;;;;;;11.18;2.72;;;;;;;;;;5062898;28;42525;-69
2023/09/13 11:48:32;;;;;;;5.85;2.35;;;;;;;;;;5064143;28;42162;-69
2023/09/13 11:51:17;;;;;;;4.88;2.10;;;;;;;;;;5060960;28;42275;-70
2023/09/13 11:53:50;;;;;;;9.18;2.47;;;;;;;;;;5065003;28;42547;-70
2023/09/13 11:56:35;;;;;;;5.75;1.90;;;;;;;;;;5069766;28;40435;-69
2023/09/13 11:59:13;;;;;;;4.82;1.95;;;;;;;;;;5066646;28;41277;-69
2023/09/13 12:01:43;;;;;;;6.18;2.42;;;;;;;;;;5069879;28;43092;-69
2023/09/13 12:04:14;;;;;;;8.63;2.50;;;;;;;;;;5066569;28;40128;-69
2023/09/13 12:07:03;;;;;;;4.40;1.85;;;;;;;;;;5062192;28;42474;-69
2023/09/13 12:09:34;;;;;;;8.00;2.22;;;;;;;;;;5065690;28;42085;-70
2023/09/13 12:12:08;;;;;;;5.82;1.92;;;;;;;;;;5068856;28;43116;-70
2023/09/13 12:14:39;;;;;;;7.72;2.50;;;;;;;;;;5068177;28;43094;-70
2023/09/13 12:17:10;;;;;;;10.02;2.25;;;;;;;;;;5060710;28;40495;-71
2023/09/13 12:19:38;;;;;;;5.93;2.30;;;;;;;;;;5068645;28;42539;-71
2023/09/13 12:22:06;;;;;;;7.18;1.92;;;;;;;;;;5068458;28;42128;-71
2023/09/13 12:24:34;;;;;;;10.45;2.78;;;;;;;;;;5068583;28;40376;-70
2023/09/13 12:27:03;;;;;;;3.83;1.55;;;;;;;;;;5066041;28;42677;-70
2023/09/13 12:29:32;;;;;;;5.45;2.00;;;;;;;;;;5068488;28;42263;-71
2023/09/13 12:32:00;;;;;;;9.25;2.10;;;;;;;;;;5070015;28;40115;-71
2023/09/13 12:34:28;;;;;;;8.65;2.17;;;;;;;;;;5068573;28;42612;-70
2023/09/13 12:36:56;;;;;;;4.45;1.70;;;;;;;;;;5069824;28;41302;-71
2023/09/13 12:39:24;;;;;;;3.15;1.80;;;;;;;;;;5069174;28;41468;-70
2023/09/13 12:41:52;;;;;;;6.70;1.95;;;;;;;;;;5067565;28;40944;-70
2023/09/13 12:44:20;;;;;;;4.05;1.75;;;;;;;;;;5068959;28;41379;-70
2023/09/13 12:46:52;;;;;;;4.93;2.00;;;;;;;;;;5063836;28;41485;-70
2023/09/13 12:49:20;;;;;;;6.55;1.77;;;;;;;;;;5063719;28;42290;-71
2023/09/13 12:51:49;;;;;;;6.80;1.63;;;;;;;;;;5068028;28;41210;-70
2023/09/13 12:54:17;;;;;;;4.60;2.00;;;;;;;;;;5067157;28;41018;-71
2023/09/13 12:56:45;;;;;;;2.70;1.20;;;;;;;;;;5068046;28;40437;-71
2023/09/13 12:59:13;;;;;;;5.22;1.52;;;;;;;;;;5067545;28;41597;-70
2023/09/13 13:01:42;;;;;;;3.35;1.10;;;;;;;;;;5067295;28;40647;-70
2023/09/13 13:04:12;;;;;;;3.17;1.38;;;;;;;;;;5064338;28;40350;-71
2023/09/13 13:06:55;;;;;;;4.63;1.50;;;;;;;;;;5065787;28;41858;-70
2023/09/13 13:09:23;;;;;;;3.15;1.48;;;;;;;;;;5062275;28;43176;-71
2023/09/13 13:11:52;;;;;;;3.92;1.52;;;;;;;;;;5067181;28;41951;-70
2023/09/13 13:14:21;;;;;;;4.85;1.42;;;;;;;;;;5065903;28;41285;-70
2023/09/13 13:16:51;;;;;;;2.10;1.20;;;;;;;;;;5065801;28;41885;-70
2023/09/13 13:19:28;;;;;;;2.38;1.20;;;;;;;;;;5064128;28;41822;-70
2023/09/13 13:21:58;;;;;;;3.38;1.50;;;;;;;;;;5064983;28;42343;-70
2023/09/13 13:24:29;;;;;;;2.65;0.80;;;;;;;;;;5067476;28;40581;-71
2023/09/13 13:26:57;;;;;;;3.72;1.25;;;;;;;;;;5067329;28;41235;-69
2023/09/13 13:29:25;;;;;;;2.53;1.17;;;;;;;;;;5067643;28;42025;-70
2023/09/13 13:31:53;;;;;;;3.78;0.98;;;;;;;;;;5067006;28;41035;-70
2023/09/13 13:34:21;;;;;;;7.20;1.10;;;;;;;;;;5067781;28;42556;-70
2023/09/13 13:36:51;;;;;;;4.18;1.08;;;;;;;;;;5068187;28;41837;-70
2023/09/13 13:39:19;;;;;;;3.00;1.10;;;;;;;;;;5067671;28;41944;-70
2023/09/13 13:41:46;;;;;;;3.58;0.90;;;;;;;;;;5067067;28;41199;-71
2023/09/13 13:44:17;;;;;;;2.45;0.95;;;;;;;;;;5067412;28;40341;-71
2023/09/13 13:46:45;;;;;;;2.95;0.75;;;;;;;;;;5065277;28;41435;-71
2023/09/13 13:49:16;;;;;;;2.55;0.85;;;;;;;;;;5065486;28;41052;-70
2023/09/13 13:51:46;;;;;;;3.85;1.30;;;;;;;;;;5067012;28;40064;-71
2023/09/13 13:54:15;;;;;;;5.18;1.15;;;;;;;;;;5067056;28;42022;-70
2023/09/13 13:56:44;;;;;;;5.38;1.30;;;;;;;;;;5050996;28;41894;-73
2023/09/13 13:59:13;;;;;;;4.45;1.10;;;;;;;;;;5053498;27;40444;-74
2023/09/13 14:01:42;;;;;;;7.05;0.93;;;;;;;;;;5064417;28;42302;-73
2023/09/13 14:04:10;;;;;;;6.28;1.05;;;;;;;;;;5065567;28;41982;-75
2023/09/13 14:06:44;;;;;;;3.97;1.13;;;;;;;;;;5063429;28;41565;-72
2023/09/13 14:09:13;;;;;;;2.92;1.27;;;;;;;;;;5063399;28;42103;-73
2023/09/13 14:11:42;;;;;;;1.98;0.88;;;;;;;;;;5058918;28;39928;-71
2023/09/13 14:14:13;;;;;;;3.92;0.93;;;;;;;;;;5066391;28;41325;-72
2023/09/13 14:16:43;;;;;;;4.03;1.63;;;;;;;;;;5062167;28;42287;-73
2023/09/13 14:19:11;;;;;;;2.85;1.17;;;;;;;;;;5066705;28;39550;-73
2023/09/13 14:21:40;;;;;;;4.78;1.50;;;;;;;;;;5064364;28;41698;-72
2023/09/13 14:24:08;;;;;;;3.60;1.45;;;;;;;;;;5066408;28;41387;-72
2023/09/13 14:26:36;;;;;;;3.92;1.40;;;;;;;;;;5064935;28;40629;-71
2023/09/13 14:29:07;;;;;;;3.58;1.50;;;;;;;;;;5064174;28;42377;-71
2023/09/13 14:31:37;;;;;;;3.53;1.23;;;;;;;;;;5064888;28;42242;-72
2023/09/13 14:34:06;;;;;;;3.42;1.27;;;;;;;;;;5063750;28;40694;-71
2023/09/13 14:36:34;;;;;;;3.78;1.50;;;;;;;;;;5058275;28;41574;-70
2023/09/13 14:39:03;;;;;;;3.60;1.25;;;;;;;;;;5062503;28;40035;-71
2023/09/13 14:41:31;;;;;;;4.15;1.50;;;;;;;;;;5063522;28;41395;-72
2023/09/13 14:43:59;;;;;;;5.03;1.63;;;;;;;;;;5066255;28;43188;-72
2023/09/13 14:46:29;;;;;;;5.00;1.58;;;;;;;;;;5064887;28;41020;-73
2023/09/13 14:48:57;;;;;;;6.18;1.70;;;;;;;;;;5064666;28;41056;-70
2023/09/13 14:51:25;;;;;;;8.20;1.88;;;;;;;;;;5064283;28;40159;-72
2023/09/13 14:53:53;;;;;;;3.78;1.45;;;;;;;;;;5066142;28;42088;-70